Terminal Aerodrome Forecast
Issued by NWS

Home | Current Version | Previous Version | Text Only | Print | Product List | Glossary On
Versions: 1 2 3 4 5 6 7 8 9 10 11 12 13 14
000
FTUS43 KLSX 311700
TAFCPS
TAF
KCPS 311720Z 3118/0118 34020G30KT P6SM SCT050
      TEMPO 3118/3122 BKN050
     FM010000 34013KT P6SM SKC
     FM010900 34009KT P6SM SKC=

USA.gov is the U.S. government's official web portal to all federal, state and local government web resources and services.